sensor_id;sensor_type;location;lat;lon;timestamp;P1;durP1;ratioP1;P2;durP2;ratioP2
17858;SDS011;35426;30.698;104.050;2024-03-08T00:01:37;64.03;;;31.73;;
17858;SDS011;35426;30.698;104.050;2024-03-08T00:04:11;61.63;;;31.53;;
17858;SDS011;35426;30.698;104.050;2024-03-08T00:06:45;60.57;;;32.03;;
17858;SDS011;35426;30.698;104.050;2024-03-08T00:09:19;66.10;;;33.03;;
17858;SDS011;35426;30.698;104.050;2024-03-08T00:11:54;62.63;;;31.37;;
17858;SDS011;35426;30.698;104.050;2024-03-08T00:14:31;58.07;;;31.10;;
17858;SDS011;35426;30.698;104.050;2024-03-08T00:17:05;59.90;;;32.17;;
17858;SDS011;35426;30.698;104.050;2024-03-08T00:19:38;63.30;;;31.40;;
17858;SDS011;35426;30.698;104.050;2024-03-08T00:22:14;56.27;;;30.07;;
17858;SDS011;35426;30.698;104.050;2024-03-08T00:24:48;58.63;;;30.90;;
17858;SDS011;35426;30.698;104.050;2024-03-08T00:27:22;58.97;;;30.90;;
17858;SDS011;35426;30.698;104.050;2024-03-08T00:30:00;57.80;;;32.67;;
17858;SDS011;35426;30.698;104.050;2024-03-08T00:32:35;63.63;;;31.63;;
17858;SDS011;35426;30.698;104.050;2024-03-08T00:35:08;58.70;;;31.90;;
17858;SDS011;35426;30.698;104.050;2024-03-08T00:37:42;64.47;;;33.03;;
17858;SDS011;35426;30.698;104.050;2024-03-08T00:40:17;60.30;;;32.57;;
17858;SDS011;35426;30.698;104.050;2024-03-08T00:42:50;58.60;;;32.47;;
17858;SDS011;35426;30.698;104.050;2024-03-08T00:45:26;62.60;;;31.37;;
17858;SDS011;35426;30.698;104.050;2024-03-08T00:48:00;57.00;;;30.60;;
17858;SDS011;35426;30.698;104.050;2024-03-08T00:50:35;57.93;;;31.20;;
17858;SDS011;35426;30.698;104.050;2024-03-08T00:53:11;60.27;;;31.80;;
17858;SDS011;35426;30.698;104.050;2024-03-08T00:55:44;61.00;;;31.97;;
17858;SDS011;35426;30.698;104.050;2024-03-08T00:58:18;68.03;;;32.87;;
17858;SDS011;35426;30.698;104.050;2024-03-08T01:00:55;60.87;;;31.63;;
17858;SDS011;35426;30.698;104.050;2024-03-08T01:03:30;62.90;;;32.07;;
17858;SDS011;35426;30.698;104.050;2024-03-08T01:06:04;61.97;;;31.87;;
17858;SDS011;35426;30.698;104.050;2024-03-08T01:08:38;67.60;;;33.03;;
17858;SDS011;35426;30.698;104.050;2024-03-08T01:11:13;64.70;;;32.90;;
17858;SDS011;35426;30.698;104.050;2024-03-08T01:13:47;60.53;;;31.73;;
17858;SDS011;35426;30.698;104.050;2024-03-08T01:16:23;58.20;;;32.50;;
17858;SDS011;35426;30.698;104.050;2024-03-08T01:18:56;65.27;;;32.03;;
17858;SDS011;35426;30.698;104.050;2024-03-08T01:21:32;58.20;;;31.13;;
17858;SDS011;35426;30.698;104.050;2024-03-08T01:24:05;55.23;;;30.57;;
17858;SDS011;35426;30.698;104.050;2024-03-08T01:26:39;54.33;;;31.17;;
17858;SDS011;35426;30.698;104.050;2024-03-08T01:29:12;57.30;;;30.90;;
17858;SDS011;35426;30.698;104.050;2024-03-08T01:31:48;61.13;;;32.00;;
17858;SDS011;35426;30.698;104.050;2024-03-08T01:34:22;54.23;;;30.57;;
17858;SDS011;35426;30.698;104.050;2024-03-08T01:36:57;61.27;;;31.87;;
17858;SDS011;35426;30.698;104.050;2024-03-08T01:39:32;60.57;;;31.93;;
17858;SDS011;35426;30.698;104.050;2024-03-08T01:42:06;59.27;;;31.10;;
17858;SDS011;35426;30.698;104.050;2024-03-08T01:44:41;58.20;;;31.27;;
17858;SDS011;35426;30.698;104.050;2024-03-08T01:47:17;59.47;;;31.80;;
17858;SDS011;35426;30.698;104.050;2024-03-08T01:49:52;59.57;;;32.63;;
17858;SDS011;35426;30.698;104.050;2024-03-08T01:52:26;62.40;;;32.00;;
17858;SDS011;35426;30.698;104.050;2024-03-08T01:55:01;58.00;;;30.57;;
17858;SDS011;35426;30.698;104.050;2024-03-08T01:57:36;65.93;;;32.80;;
17858;SDS011;35426;30.698;104.050;2024-03-08T02:00:10;63.67;;;33.90;;
17858;SDS011;35426;30.698;104.050;2024-03-08T02:02:48;66.03;;;32.17;;
17858;SDS011;35426;30.698;104.050;2024-03-08T02:05:23;62.70;;;31.97;;
17858;SDS011;35426;30.698;104.050;2024-03-08T02:07:57;57.73;;;32.50;;
17858;SDS011;35426;30.698;104.050;2024-03-08T02:10:36;60.00;;;31.83;;
17858;SDS011;35426;30.698;104.050;2024-03-08T02:13:10;59.80;;;31.80;;
17858;SDS011;35426;30.698;104.050;2024-03-08T02:15:50;59.30;;;31.80;;
17858;SDS011;35426;30.698;104.050;2024-03-08T02:18:28;55.93;;;30.20;;
17858;SDS011;35426;30.698;104.050;2024-03-08T02:21:07;57.87;;;29.40;;
17858;SDS011;35426;30.698;104.050;2024-03-08T02:23:41;62.73;;;30.97;;
17858;SDS011;35426;30.698;104.050;2024-03-08T02:26:16;56.83;;;30.27;;
17858;SDS011;35426;30.698;104.050;2024-03-08T02:28:50;55.50;;;29.23;;
17858;SDS011;35426;30.698;104.050;2024-03-08T02:31:23;55.37;;;28.97;;
17858;SDS011;35426;30.698;104.050;2024-03-08T02:33:58;57.40;;;30.77;;
17858;SDS011;35426;30.698;104.050;2024-03-08T02:36:33;58.00;;;28.83;;
17858;SDS011;35426;30.698;104.050;2024-03-08T02:39:08;51.83;;;27.70;;
17858;SDS011;35426;30.698;104.050;2024-03-08T02:41:43;51.47;;;26.37;;
17858;SDS011;35426;30.698;104.050;2024-03-08T02:44:17;48.97;;;25.07;;
17858;SDS011;35426;30.698;104.050;2024-03-08T02:46:51;51.10;;;23.67;;
17858;SDS011;35426;30.698;104.050;2024-03-08T02:49:25;46.60;;;24.40;;
17858;SDS011;35426;30.698;104.050;2024-03-08T02:52:05;46.60;;;23.37;;
17858;SDS011;35426;30.698;104.050;2024-03-08T02:54:39;46.10;;;23.87;;
17858;SDS011;35426;30.698;104.050;2024-03-08T02:57:16;42.93;;;22.93;;
17858;SDS011;35426;30.698;104.050;2024-03-08T02:59:50;47.20;;;23.73;;
17858;SDS011;35426;30.698;104.050;2024-03-08T03:02:24;48.53;;;24.67;;
17858;SDS011;35426;30.698;104.050;2024-03-08T03:04:58;41.60;;;22.80;;
17858;SDS011;35426;30.698;104.050;2024-03-08T03:07:38;46.43;;;24.80;;
17858;SDS011;35426;30.698;104.050;2024-03-08T03:10:12;57.87;;;26.43;;
17858;SDS011;35426;30.698;104.050;2024-03-08T03:12:47;51.20;;;26.13;;
17858;SDS011;35426;30.698;104.050;2024-03-08T03:15:22;59.90;;;27.10;;
17858;SDS011;35426;30.698;104.050;2024-03-08T03:17:57;59.90;;;28.60;;
17858;SDS011;35426;30.698;104.050;2024-03-08T03:20:31;55.33;;;28.73;;
17858;SDS011;35426;30.698;104.050;2024-03-08T03:23:11;48.77;;;26.30;;
17858;SDS011;35426;30.698;104.050;2024-03-08T03:25:50;48.50;;;25.83;;
17858;SDS011;35426;30.698;104.050;2024-03-08T03:28:26;47.97;;;25.00;;
17858;SDS011;35426;30.698;104.050;2024-03-08T03:31:01;48.43;;;26.80;;
17858;SDS011;35426;30.698;104.050;2024-03-08T03:33:37;49.43;;;25.93;;
17858;SDS011;35426;30.698;104.050;2024-03-08T03:36:11;60.73;;;28.23;;
17858;SDS011;35426;30.698;104.050;2024-03-08T03:38:48;49.03;;;26.33;;
17858;SDS011;35426;30.698;104.050;2024-03-08T03:41:21;45.17;;;24.00;;
17858;SDS011;35426;30.698;104.050;2024-03-08T03:43:55;52.47;;;23.27;;
17858;SDS011;35426;30.698;104.050;2024-03-08T03:46:29;50.90;;;24.13;;
17858;SDS011;35426;30.698;104.050;2024-03-08T03:49:03;47.73;;;23.03;;
17858;SDS011;35426;30.698;104.050;2024-03-08T03:51:37;43.37;;;22.33;;
17858;SDS011;35426;30.698;104.050;2024-03-08T03:54:14;53.13;;;24.73;;
17858;SDS011;35426;30.698;104.050;2024-03-08T03:56:48;51.60;;;24.87;;
17858;SDS011;35426;30.698;104.050;2024-03-08T03:59:23;47.10;;;25.50;;
17858;SDS011;35426;30.698;104.050;2024-03-08T04:01:58;48.57;;;24.30;;
17858;SDS011;35426;30.698;104.050;2024-03-08T04:04:31;59.07;;;28.77;;
17858;SDS011;35426;30.698;104.050;2024-03-08T04:07:05;65.47;;;31.00;;
17858;SDS011;35426;30.698;104.050;2024-03-08T04:09:41;65.50;;;30.70;;
17858;SDS011;35426;30.698;104.050;2024-03-08T04:12:14;59.47;;;30.23;;
17858;SDS011;35426;30.698;104.050;2024-03-08T04:14:49;71.13;;;33.93;;
17858;SDS011;35426;30.698;104.050;2024-03-08T04:17:23;72.17;;;35.03;;
17858;SDS011;35426;30.698;104.050;2024-03-08T04:19:58;61.13;;;32.30;;
17858;SDS011;35426;30.698;104.050;2024-03-08T04:22:34;67.20;;;31.87;;
17858;SDS011;35426;30.698;104.050;2024-03-08T04:25:10;59.33;;;28.87;;
17858;SDS011;35426;30.698;104.050;2024-03-08T04:27:44;62.70;;;31.40;;
17858;SDS011;35426;30.698;104.050;2024-03-08T04:30:19;63.73;;;29.80;;
17858;SDS011;35426;30.698;104.050;2024-03-08T04:32:53;59.23;;;29.83;;
17858;SDS011;35426;30.698;104.050;2024-03-08T04:35:28;62.60;;;31.47;;
17858;SDS011;35426;30.698;104.050;2024-03-08T04:38:02;59.40;;;30.43;;
17858;SDS011;35426;30.698;104.050;2024-03-08T04:40:38;67.10;;;31.43;;
17858;SDS011;35426;30.698;104.050;2024-03-08T04:43:12;53.90;;;30.37;;
17858;SDS011;35426;30.698;104.050;2024-03-08T04:45:48;62.50;;;30.13;;
17858;SDS011;35426;30.698;104.050;2024-03-08T04:48:22;59.10;;;29.53;;
17858;SDS011;35426;30.698;104.050;2024-03-08T04:50:56;63.20;;;31.07;;
17858;SDS011;35426;30.698;104.050;2024-03-08T04:53:31;73.37;;;33.33;;
17858;SDS011;35426;30.698;104.050;2024-03-08T04:56:07;70.90;;;35.77;;
17858;SDS011;35426;30.698;104.050;2024-03-08T04:58:41;65.60;;;35.83;;
17858;SDS011;35426;30.698;104.050;2024-03-08T05:01:16;78.90;;;41.13;;
17858;SDS011;35426;30.698;104.050;2024-03-08T05:03:50;89.47;;;42.87;;
17858;SDS011;35426;30.698;104.050;2024-03-08T05:06:29;85.30;;;43.37;;
17858;SDS011;35426;30.698;104.050;2024-03-08T05:09:03;87.27;;;43.73;;
17858;SDS011;35426;30.698;104.050;2024-03-08T05:11:47;89.77;;;45.23;;
17858;SDS011;35426;30.698;104.050;2024-03-08T05:14:21;88.33;;;46.00;;
17858;SDS011;35426;30.698;104.050;2024-03-08T05:16:55;86.30;;;42.73;;
17858;SDS011;35426;30.698;104.050;2024-03-08T05:19:30;78.07;;;42.23;;
17858;SDS011;35426;30.698;104.050;2024-03-08T05:22:04;84.13;;;44.60;;
17858;SDS011;35426;30.698;104.050;2024-03-08T05:24:38;104.53;;;48.80;;
17858;SDS011;35426;30.698;104.050;2024-03-08T05:27:14;96.37;;;49.27;;
17858;SDS011;35426;30.698;104.050;2024-03-08T05:29:49;102.10;;;52.13;;
17858;SDS011;35426;30.698;104.050;2024-03-08T05:32:22;107.83;;;51.60;;
17858;SDS011;35426;30.698;104.050;2024-03-08T05:34:58;86.73;;;48.10;;
17858;SDS011;35426;30.698;104.050;2024-03-08T05:37:38;100.03;;;49.83;;
17858;SDS011;35426;30.698;104.050;2024-03-08T05:40:13;103.77;;;48.10;;
17858;SDS011;35426;30.698;104.050;2024-03-08T05:42:51;102.03;;;49.33;;
17858;SDS011;35426;30.698;104.050;2024-03-08T05:45:27;99.27;;;48.47;;
17858;SDS011;35426;30.698;104.050;2024-03-08T05:48:01;87.83;;;46.07;;
17858;SDS011;35426;30.698;104.050;2024-03-08T05:50:35;95.17;;;48.43;;
17858;SDS011;35426;30.698;104.050;2024-03-08T05:53:08;95.47;;;47.23;;
17858;SDS011;35426;30.698;104.050;2024-03-08T05:55:42;89.90;;;45.73;;
17858;SDS011;35426;30.698;104.050;2024-03-08T05:58:17;92.13;;;46.67;;
17858;SDS011;35426;30.698;104.050;2024-03-08T06:00:52;84.10;;;43.90;;
17858;SDS011;35426;30.698;104.050;2024-03-08T06:03:26;78.13;;;44.03;;
17858;SDS011;35426;30.698;104.050;2024-03-08T06:06:00;81.17;;;43.97;;
17858;SDS011;35426;30.698;104.050;2024-03-08T06:08:36;84.03;;;43.60;;
17858;SDS011;35426;30.698;104.050;2024-03-08T06:11:10;87.70;;;45.10;;
17858;SDS011;35426;30.698;104.050;2024-03-08T06:13:46;80.53;;;42.20;;
17858;SDS011;35426;30.698;104.050;2024-03-08T06:16:21;96.67;;;43.03;;
17858;SDS011;35426;30.698;104.050;2024-03-08T06:18:58;79.00;;;43.27;;
17858;SDS011;35426;30.698;104.050;2024-03-08T06:21:32;98.03;;;46.67;;
17858;SDS011;35426;30.698;104.050;2024-03-08T06:24:06;83.93;;;44.63;;
17858;SDS011;35426;30.698;104.050;2024-03-08T06:26:40;80.30;;;41.73;;
17858;SDS011;35426;30.698;104.050;2024-03-08T06:29:16;81.37;;;41.90;;
17858;SDS011;35426;30.698;104.050;2024-03-08T06:31:49;86.40;;;44.67;;
17858;SDS011;35426;30.698;104.050;2024-03-08T06:34:24;81.03;;;41.93;;
17858;SDS011;35426;30.698;104.050;2024-03-08T06:36:57;71.60;;;39.43;;
17858;SDS011;35426;30.698;104.050;2024-03-08T06:39:31;84.57;;;41.87;;
17858;SDS011;35426;30.698;104.050;2024-03-08T06:42:05;76.33;;;41.67;;
17858;SDS011;35426;30.698;104.050;2024-03-08T06:44:44;87.13;;;43.20;;
17858;SDS011;35426;30.698;104.050;2024-03-08T06:47:20;87.13;;;43.27;;
17858;SDS011;35426;30.698;104.050;2024-03-08T06:49:55;84.47;;;42.63;;
17858;SDS011;35426;30.698;104.050;2024-03-08T06:52:30;72.37;;;39.40;;
17858;SDS011;35426;30.698;104.050;2024-03-08T06:55:03;98.37;;;46.73;;
17858;SDS011;35426;30.698;104.050;2024-03-08T06:57:41;96.27;;;46.53;;
17858;SDS011;35426;30.698;104.050;2024-03-08T07:00:17;93.13;;;46.37;;
17858;SDS011;35426;30.698;104.050;2024-03-08T07:02:51;98.00;;;47.43;;
17858;SDS011;35426;30.698;104.050;2024-03-08T07:05:25;88.00;;;46.20;;
17858;SDS011;35426;30.698;104.050;2024-03-08T07:07:59;86.90;;;47.23;;
17858;SDS011;35426;30.698;104.050;2024-03-08T07:10:32;77.23;;;43.17;;
17858;SDS011;35426;30.698;104.050;2024-03-08T07:13:06;75.13;;;40.60;;
17858;SDS011;35426;30.698;104.050;2024-03-08T07:15:42;96.33;;;47.03;;
17858;SDS011;35426;30.698;104.050;2024-03-08T07:18:15;98.20;;;48.90;;
17858;SDS011;35426;30.698;104.050;2024-03-08T07:20:49;89.20;;;45.60;;
17858;SDS011;35426;30.698;104.050;2024-03-08T07:23:23;86.00;;;46.57;;
17858;SDS011;35426;30.698;104.050;2024-03-08T07:26:16;87.73;;;47.30;;
17858;SDS011;35426;30.698;104.050;2024-03-08T07:28:51;101.23;;;48.70;;
17858;SDS011;35426;30.698;104.050;2024-03-08T07:31:28;94.30;;;48.43;;
17858;SDS011;35426;30.698;104.050;2024-03-08T07:34:13;107.40;;;49.60;;
17858;SDS011;35426;30.698;104.050;2024-03-08T07:36:47;97.03;;;48.87;;
17858;SDS011;35426;30.698;104.050;2024-03-08T07:39:24;101.97;;;51.87;;
17858;SDS011;35426;30.698;104.050;2024-03-08T07:41:58;99.47;;;51.43;;
17858;SDS011;35426;30.698;104.050;2024-03-08T07:44:32;97.77;;;49.43;;
17858;SDS011;35426;30.698;104.050;2024-03-08T07:47:08;99.10;;;47.37;;
17858;SDS011;35426;30.698;104.050;2024-03-08T07:49:55;89.47;;;48.03;;
17858;SDS011;35426;30.698;104.050;2024-03-08T07:52:32;99.83;;;50.87;;
17858;SDS011;35426;30.698;104.050;2024-03-08T07:55:06;97.70;;;50.57;;
17858;SDS011;35426;30.698;104.050;2024-03-08T07:57:49;85.13;;;47.00;;
17858;SDS011;35426;30.698;104.050;2024-03-08T08:00:23;85.37;;;46.37;;
17858;SDS011;35426;30.698;104.050;2024-03-08T08:03:00;82.20;;;43.57;;
17858;SDS011;35426;30.698;104.050;2024-03-08T08:05:34;77.70;;;44.53;;
17858;SDS011;35426;30.698;104.050;2024-03-08T08:08:15;83.50;;;46.73;;
17858;SDS011;35426;30.698;104.050;2024-03-08T08:10:50;94.80;;;44.67;;
17858;SDS011;35426;30.698;104.050;2024-03-08T08:13:24;84.43;;;46.60;;
17858;SDS011;35426;30.698;104.050;2024-03-08T08:16:03;94.50;;;50.97;;
17858;SDS011;35426;30.698;104.050;2024-03-08T08:18:41;92.87;;;49.93;;
17858;SDS011;35426;30.698;104.050;2024-03-08T08:21:16;85.27;;;47.83;;
17858;SDS011;35426;30.698;104.050;2024-03-08T08:23:51;89.97;;;45.33;;
17858;SDS011;35426;30.698;104.050;2024-03-08T08:26:28;79.43;;;43.23;;
17858;SDS011;35426;30.698;104.050;2024-03-08T08:29:06;99.40;;;48.70;;
17858;SDS011;35426;30.698;104.050;2024-03-08T08:31:40;91.03;;;47.43;;
17858;SDS011;35426;30.698;104.050;2024-03-08T08:34:17;96.47;;;47.20;;
17858;SDS011;35426;30.698;104.050;2024-03-08T08:36:53;80.57;;;43.90;;
17858;SDS011;35426;30.698;104.050;2024-03-08T08:39:27;84.17;;;42.13;;
17858;SDS011;35426;30.698;104.050;2024-03-08T08:42:01;73.30;;;38.20;;
17858;SDS011;35426;30.698;104.050;2024-03-08T08:44:38;70.37;;;39.70;;
17858;SDS011;35426;30.698;104.050;2024-03-08T08:47:12;72.20;;;38.63;;
17858;SDS011;35426;30.698;104.050;2024-03-08T08:49:49;75.97;;;40.63;;
17858;SDS011;35426;30.698;104.050;2024-03-08T08:52:24;83.13;;;41.77;;
17858;SDS011;35426;30.698;104.050;2024-03-08T08:54:59;70.10;;;37.73;;
17858;SDS011;35426;30.698;104.050;2024-03-08T08:57:36;71.77;;;39.07;;
17858;SDS011;35426;30.698;104.050;2024-03-08T09:00:11;74.97;;;39.80;;
17858;SDS011;35426;30.698;104.050;2024-03-08T09:02:46;74.83;;;39.70;;
17858;SDS011;35426;30.698;104.050;2024-03-08T09:05:23;71.30;;;37.50;;
17858;SDS011;35426;30.698;104.050;2024-03-08T09:07:57;74.37;;;41.00;;
17858;SDS011;35426;30.698;104.050;2024-03-08T09:10:32;77.17;;;40.80;;
17858;SDS011;35426;30.698;104.050;2024-03-08T09:13:09;61.47;;;35.87;;
17858;SDS011;35426;30.698;104.050;2024-03-08T09:15:54;80.47;;;39.03;;
17858;SDS011;35426;30.698;104.050;2024-03-08T09:18:28;74.53;;;37.63;;
17858;SDS011;35426;30.698;104.050;2024-03-08T09:21:03;79.00;;;39.93;;
17858;SDS011;35426;30.698;104.050;2024-03-08T09:23:39;89.63;;;42.00;;
17858;SDS011;35426;30.698;104.050;2024-03-08T09:26:14;74.77;;;38.10;;
17858;SDS011;35426;30.698;104.050;2024-03-08T09:28:56;77.30;;;40.33;;
17858;SDS011;35426;30.698;104.050;2024-03-08T09:31:29;72.93;;;36.70;;
17858;SDS011;35426;30.698;104.050;2024-03-08T09:34:03;67.37;;;36.97;;
17858;SDS011;35426;30.698;104.050;2024-03-08T09:36:51;75.37;;;40.17;;
17858;SDS011;35426;30.698;104.050;2024-03-08T09:39:25;78.40;;;40.60;;
17858;SDS011;35426;30.698;104.050;2024-03-08T09:42:00;78.13;;;40.70;;
17858;SDS011;35426;30.698;104.050;2024-03-08T09:44:35;81.90;;;41.27;;
17858;SDS011;35426;30.698;104.050;2024-03-08T09:47:10;75.57;;;40.97;;
17858;SDS011;35426;30.698;104.050;2024-03-08T09:49:46;78.00;;;40.23;;
17858;SDS011;35426;30.698;104.050;2024-03-08T09:52:25;76.00;;;38.13;;
17858;SDS011;35426;30.698;104.050;2024-03-08T09:55:00;65.53;;;34.83;;
17858;SDS011;35426;30.698;104.050;2024-03-08T09:57:35;69.10;;;35.90;;
17858;SDS011;35426;30.698;104.050;2024-03-08T10:00:10;68.70;;;38.47;;
17858;SDS011;35426;30.698;104.050;2024-03-08T10:02:53;72.53;;;37.83;;
17858;SDS011;35426;30.698;104.050;2024-03-08T10:05:27;70.17;;;37.97;;
17858;SDS011;35426;30.698;104.050;2024-03-08T10:08:03;75.77;;;38.00;;
17858;SDS011;35426;30.698;104.050;2024-03-08T10:10:37;74.70;;;37.13;;
17858;SDS011;35426;30.698;104.050;2024-03-08T10:13:11;73.53;;;36.60;;
17858;SDS011;35426;30.698;104.050;2024-03-08T10:15:46;71.37;;;36.23;;
17858;SDS011;35426;30.698;104.050;2024-03-08T10:18:21;67.63;;;35.07;;
17858;SDS011;35426;30.698;104.050;2024-03-08T10:21:04;69.80;;;34.60;;
17858;SDS011;35426;30.698;104.050;2024-03-08T10:23:41;72.37;;;35.07;;
17858;SDS011;35426;30.698;104.050;2024-03-08T10:26:15;64.10;;;33.60;;
17858;SDS011;35426;30.698;104.050;2024-03-08T10:28:51;65.70;;;34.00;;
17858;SDS011;35426;30.698;104.050;2024-03-08T10:31:27;65.87;;;34.70;;
17858;SDS011;35426;30.698;104.050;2024-03-08T10:34:03;70.30;;;35.00;;
17858;SDS011;35426;30.698;104.050;2024-03-08T10:36:36;67.80;;;35.77;;
17858;SDS011;35426;30.698;104.050;2024-03-08T10:39:21;71.17;;;35.30;;
17858;SDS011;35426;30.698;104.050;2024-03-08T10:41:56;61.47;;;33.47;;
17858;SDS011;35426;30.698;104.050;2024-03-08T10:44:41;76.37;;;36.23;;
17858;SDS011;35426;30.698;104.050;2024-03-08T10:47:25;71.37;;;35.37;;
17858;SDS011;35426;30.698;104.050;2024-03-08T10:50:03;70.97;;;36.23;;
17858;SDS011;35426;30.698;104.050;2024-03-08T10:52:42;72.13;;;36.43;;
17858;SDS011;35426;30.698;104.050;2024-03-08T10:55:20;75.37;;;37.77;;
17858;SDS011;35426;30.698;104.050;2024-03-08T10:57:55;76.47;;;39.40;;
17858;SDS011;35426;30.698;104.050;2024-03-08T11:00:28;79.53;;;38.60;;
17858;SDS011;35426;30.698;104.050;2024-03-08T11:03:02;76.57;;;39.43;;
17858;SDS011;35426;30.698;104.050;2024-03-08T11:05:37;91.07;;;42.73;;
17858;SDS011;35426;30.698;104.050;2024-03-08T11:08:17;93.37;;;44.23;;
17858;SDS011;35426;30.698;104.050;2024-03-08T11:10:55;79.50;;;41.17;;
17858;SDS011;35426;30.698;104.050;2024-03-08T11:13:35;74.00;;;39.53;;
17858;SDS011;35426;30.698;104.050;2024-03-08T11:16:10;87.83;;;41.33;;
17858;SDS011;35426;30.698;104.050;2024-03-08T11:18:49;81.30;;;42.20;;
17858;SDS011;35426;30.698;104.050;2024-03-08T11:21:23;75.33;;;40.77;;
17858;SDS011;35426;30.698;104.050;2024-03-08T11:23:59;81.37;;;40.80;;
17858;SDS011;35426;30.698;104.050;2024-03-08T11:26:37;80.83;;;42.30;;
17858;SDS011;35426;30.698;104.050;2024-03-08T11:32:09;79.80;;;43.03;;
17858;SDS011;35426;30.698;104.050;2024-03-08T11:34:45;88.23;;;45.50;;
17858;SDS011;35426;30.698;104.050;2024-03-08T11:37:20;93.53;;;46.90;;
17858;SDS011;35426;30.698;104.050;2024-03-08T11:39:55;91.90;;;45.00;;
17858;SDS011;35426;30.698;104.050;2024-03-08T11:42:32;92.77;;;45.10;;
17858;SDS011;35426;30.698;104.050;2024-03-08T11:45:09;87.37;;;44.37;;
17858;SDS011;35426;30.698;104.050;2024-03-08T11:47:45;83.10;;;43.63;;
17858;SDS011;35426;30.698;104.050;2024-03-08T11:50:21;80.27;;;43.50;;
17858;SDS011;35426;30.698;104.050;2024-03-08T11:53:00;87.17;;;42.93;;
17858;SDS011;35426;30.698;104.050;2024-03-08T11:55:34;88.50;;;44.57;;
17858;SDS011;35426;30.698;104.050;2024-03-08T11:58:10;79.23;;;43.93;;
17858;SDS011;35426;30.698;104.050;2024-03-08T12:00:45;91.00;;;44.70;;
17858;SDS011;35426;30.698;104.050;2024-03-08T12:03:18;84.17;;;43.93;;
17858;SDS011;35426;30.698;104.050;2024-03-08T12:05:57;84.43;;;44.40;;
17858;SDS011;35426;30.698;104.050;2024-03-08T12:08:30;86.07;;;44.73;;
17858;SDS011;35426;30.698;104.050;2024-03-08T12:11:04;90.83;;;45.63;;
17858;SDS011;35426;30.698;104.050;2024-03-08T12:13:41;87.83;;;45.90;;
17858;SDS011;35426;30.698;104.050;2024-03-08T12:16:19;95.03;;;46.37;;
17858;SDS011;35426;30.698;104.050;2024-03-08T12:18:55;78.80;;;44.63;;
17858;SDS011;35426;30.698;104.050;2024-03-08T12:21:30;85.57;;;46.17;;
17858;SDS011;35426;30.698;104.050;2024-03-08T12:24:04;84.27;;;45.03;;
17858;SDS011;35426;30.698;104.050;2024-03-08T12:26:40;85.63;;;44.70;;
17858;SDS011;35426;30.698;104.050;2024-03-08T12:29:19;85.60;;;46.20;;
17858;SDS011;35426;30.698;104.050;2024-03-08T12:31:56;98.97;;;51.23;;
17858;SDS011;35426;30.698;104.050;2024-03-08T12:34:32;94.43;;;49.70;;
17858;SDS011;35426;30.698;104.050;2024-03-08T12:37:07;95.30;;;49.07;;
17858;SDS011;35426;30.698;104.050;2024-03-08T12:39:42;96.77;;;50.80;;
17858;SDS011;35426;30.698;104.050;2024-03-08T12:42:15;96.87;;;52.57;;
17858;SDS011;35426;30.698;104.050;2024-03-08T12:44:52;100.20;;;51.37;;
17858;SDS011;35426;30.698;104.050;2024-03-08T12:47:25;106.33;;;54.97;;
17858;SDS011;35426;30.698;104.050;2024-03-08T12:50:00;96.47;;;53.20;;
17858;SDS011;35426;30.698;104.050;2024-03-08T12:52:38;106.87;;;55.00;;
17858;SDS011;35426;30.698;104.050;2024-03-08T12:55:11;100.43;;;55.43;;
17858;SDS011;35426;30.698;104.050;2024-03-08T12:57:46;106.80;;;56.80;;
17858;SDS011;35426;30.698;104.050;2024-03-08T13:00:27;111.90;;;58.10;;
17858;SDS011;35426;30.698;104.050;2024-03-08T13:03:00;120.33;;;61.43;;
17858;SDS011;35426;30.698;104.050;2024-03-08T13:05:35;119.57;;;60.27;;
17858;SDS011;35426;30.698;104.050;2024-03-08T13:08:11;116.27;;;60.23;;
17858;SDS011;35426;30.698;104.050;2024-03-08T13:10:48;116.73;;;59.97;;
17858;SDS011;35426;30.698;104.050;2024-03-08T13:13:23;111.93;;;59.17;;
17858;SDS011;35426;30.698;104.050;2024-03-08T13:15:59;106.77;;;56.30;;
17858;SDS011;35426;30.698;104.050;2024-03-08T13:18:33;113.33;;;58.73;;
17858;SDS011;35426;30.698;104.050;2024-03-08T13:21:07;113.87;;;60.20;;
17858;SDS011;35426;30.698;104.050;2024-03-08T13:23:42;98.20;;;54.60;;
17858;SDS011;35426;30.698;104.050;2024-03-08T13:26:19;104.70;;;56.70;;
17858;SDS011;35426;30.698;104.050;2024-03-08T13:28:55;101.53;;;55.33;;
17858;SDS011;35426;30.698;104.050;2024-03-08T13:31:30;103.80;;;54.67;;
17858;SDS011;35426;30.698;104.050;2024-03-08T13:34:05;98.73;;;54.37;;
17858;SDS011;35426;30.698;104.050;2024-03-08T13:36:40;102.83;;;54.47;;
17858;SDS011;35426;30.698;104.050;2024-03-08T13:39:15;100.33;;;52.80;;
17858;SDS011;35426;30.698;104.050;2024-03-08T13:41:50;114.77;;;60.20;;
17858;SDS011;35426;30.698;104.050;2024-03-08T13:44:25;116.13;;;58.23;;
17858;SDS011;35426;30.698;104.050;2024-03-08T13:47:02;113.37;;;61.63;;
17858;SDS011;35426;30.698;104.050;2024-03-08T13:49:38;118.60;;;63.30;;
17858;SDS011;35426;30.698;104.050;2024-03-08T13:52:14;106.17;;;55.67;;
17858;SDS011;35426;30.698;104.050;2024-03-08T13:54:48;105.50;;;55.93;;
17858;SDS011;35426;30.698;104.050;2024-03-08T13:57:23;108.60;;;57.90;;
17858;SDS011;35426;30.698;104.050;2024-03-08T13:59:56;107.87;;;58.07;;
17858;SDS011;35426;30.698;104.050;2024-03-08T14:02:41;115.87;;;60.20;;
17858;SDS011;35426;30.698;104.050;2024-03-08T14:05:20;108.03;;;59.10;;
17858;SDS011;35426;30.698;104.050;2024-03-08T14:07:56;98.40;;;55.90;;
17858;SDS011;35426;30.698;104.050;2024-03-08T14:10:31;100.47;;;54.27;;
17858;SDS011;35426;30.698;104.050;2024-03-08T14:13:06;101.37;;;55.27;;
17858;SDS011;35426;30.698;104.050;2024-03-08T14:15:42;117.17;;;61.50;;
17858;SDS011;35426;30.698;104.050;2024-03-08T14:18:19;114.77;;;59.57;;
17858;SDS011;35426;30.698;104.050;2024-03-08T14:20:53;117.50;;;61.53;;
17858;SDS011;35426;30.698;104.050;2024-03-08T14:23:30;111.97;;;60.60;;
17858;SDS011;35426;30.698;104.050;2024-03-08T14:26:04;117.23;;;59.00;;
17858;SDS011;35426;30.698;104.050;2024-03-08T14:28:39;117.73;;;61.90;;
17858;SDS011;35426;30.698;104.050;2024-03-08T14:31:14;106.90;;;58.57;;
17858;SDS011;35426;30.698;104.050;2024-03-08T14:33:50;106.50;;;58.80;;
17858;SDS011;35426;30.698;104.050;2024-03-08T14:36:26;108.53;;;59.43;;
17858;SDS011;35426;30.698;104.050;2024-03-08T14:39:01;112.33;;;61.17;;
17858;SDS011;35426;30.698;104.050;2024-03-08T14:41:37;118.83;;;62.87;;
17858;SDS011;35426;30.698;104.050;2024-03-08T14:44:11;119.33;;;63.00;;